sensor_id;sensor_type;location;lat;lon;timestamp;temperature;humidity
4245;DHT22;2136;48.502;9.194;2023-07-31T00:01:39;17.20;84.60
4245;DHT22;2136;48.502;9.194;2023-07-31T00:04:06;17.10;85.00
4245;DHT22;2136;48.502;9.194;2023-07-31T00:06:34;17.10;85.10
4245;DHT22;2136;48.502;9.194;2023-07-31T00:09:01;17.10;85.00
4245;DHT22;2136;48.502;9.194;2023-07-31T00:11:28;17.00;85.30
4245;DHT22;2136;48.502;9.194;2023-07-31T00:13:54;17.00;86.60
4245;DHT22;2136;48.502;9.194;2023-07-31T00:16:21;17.10;88.10
4245;DHT22;2136;48.502;9.194;2023-07-31T00:18:48;17.00;87.60
4245;DHT22;2136;48.502;9.194;2023-07-31T00:21:15;16.90;87.40
4245;DHT22;2136;48.502;9.194;2023-07-31T00:23:43;16.90;87.30
4245;DHT22;2136;48.502;9.194;2023-07-31T00:26:10;16.90;88.10
4245;DHT22;2136;48.502;9.194;2023-07-31T00:28:37;16.90;88.40
4245;DHT22;2136;48.502;9.194;2023-07-31T00:31:03;16.80;89.10
4245;DHT22;2136;48.502;9.194;2023-07-31T00:33:31;16.90;90.00
4245;DHT22;2136;48.502;9.194;2023-07-31T00:35:58;16.80;89.90
4245;DHT22;2136;48.502;9.194;2023-07-31T00:38:25;16.80;89.90
4245;DHT22;2136;48.502;9.194;2023-07-31T00:40:53;16.70;90.40
4245;DHT22;2136;48.502;9.194;2023-07-31T00:43:20;16.70;90.50
4245;DHT22;2136;48.502;9.194;2023-07-31T00:45:47;16.70;90.40
4245;DHT22;2136;48.502;9.194;2023-07-31T00:48:13;16.70;90.30
4245;DHT22;2136;48.502;9.194;2023-07-31T00:50:41;16.70;90.50
4245;DHT22;2136;48.502;9.194;2023-07-31T00:53:08;16.60;90.90
4245;DHT22;2136;48.502;9.194;2023-07-31T00:55:35;16.60;91.30
4245;DHT22;2136;48.502;9.194;2023-07-31T00:58:03;16.60;91.40
4245;DHT22;2136;48.502;9.194;2023-07-31T01:00:30;16.60;91.40
4245;DHT22;2136;48.502;9.194;2023-07-31T01:02:57;16.60;91.60
4245;DHT22;2136;48.502;9.194;2023-07-31T01:05:29;16.60;91.80
4245;DHT22;2136;48.502;9.194;2023-07-31T01:08:04;16.50;91.60
4245;DHT22;2136;48.502;9.194;2023-07-31T01:10:37;16.50;91.30
4245;DHT22;2136;48.502;9.194;2023-07-31T01:13:07;16.50;91.10
4245;DHT22;2136;48.502;9.194;2023-07-31T01:15:34;16.50;90.60
4245;DHT22;2136;48.502;9.194;2023-07-31T01:18:01;16.40;90.10
4245;DHT22;2136;48.502;9.194;2023-07-31T01:20:29;16.40;90.40
4245;DHT22;2136;48.502;9.194;2023-07-31T01:26:05;16.40;91.20
4245;DHT22;2136;48.502;9.194;2023-07-31T01:28:44;16.30;91.60
4245;DHT22;2136;48.502;9.194;2023-07-31T01:31:16;16.30;92.30
4245;DHT22;2136;48.502;9.194;2023-07-31T01:33:45;16.30;92.80
4245;DHT22;2136;48.502;9.194;2023-07-31T01:36:12;16.30;93.40
4245;DHT22;2136;48.502;9.194;2023-07-31T01:38:39;16.30;93.60
4245;DHT22;2136;48.502;9.194;2023-07-31T01:41:07;16.20;93.80
4245;DHT22;2136;48.502;9.194;2023-07-31T01:43:34;16.20;94.10
4245;DHT22;2136;48.502;9.194;2023-07-31T01:46:01;16.20;93.70
4245;DHT22;2136;48.502;9.194;2023-07-31T01:48:28;16.20;93.90
4245;DHT22;2136;48.502;9.194;2023-07-31T01:51:01;16.20;94.10
4245;DHT22;2136;48.502;9.194;2023-07-31T01:53:28;16.20;93.60
4245;DHT22;2136;48.502;9.194;2023-07-31T01:55:54;16.20;93.50
4245;DHT22;2136;48.502;9.194;2023-07-31T01:58:23;16.20;93.90
4245;DHT22;2136;48.502;9.194;2023-07-31T02:00:49;16.20;93.80
4245;DHT22;2136;48.502;9.194;2023-07-31T02:03:16;16.10;94.00
4245;DHT22;2136;48.502;9.194;2023-07-31T02:05:46;16.10;94.10
4245;DHT22;2136;48.502;9.194;2023-07-31T02:08:13;16.10;94.20
4245;DHT22;2136;48.502;9.194;2023-07-31T02:10:40;16.10;94.40
4245;DHT22;2136;48.502;9.194;2023-07-31T02:13:08;16.10;94.80
4245;DHT22;2136;48.502;9.194;2023-07-31T02:15:36;16.10;94.50
4245;DHT22;2136;48.502;9.194;2023-07-31T02:18:03;16.10;94.60
4245;DHT22;2136;48.502;9.194;2023-07-31T02:20:32;16.10;94.60
4245;DHT22;2136;48.502;9.194;2023-07-31T02:22:59;16.00;94.60
4245;DHT22;2136;48.502;9.194;2023-07-31T02:25:26;16.00;94.50
4245;DHT22;2136;48.502;9.194;2023-07-31T02:27:53;16.00;94.50
4245;DHT22;2136;48.502;9.194;2023-07-31T02:30:19;16.00;94.70
4245;DHT22;2136;48.502;9.194;2023-07-31T02:32:48;16.10;94.60
4245;DHT22;2136;48.502;9.194;2023-07-31T02:35:15;16.00;95.10
4245;DHT22;2136;48.502;9.194;2023-07-31T02:37:42;16.00;94.90
4245;DHT22;2136;48.502;9.194;2023-07-31T02:40:09;16.00;95.00
4245;DHT22;2136;48.502;9.194;2023-07-31T02:42:36;16.00;95.60
4245;DHT22;2136;48.502;9.194;2023-07-31T02:45:04;16.00;96.10
4245;DHT22;2136;48.502;9.194;2023-07-31T02:47:31;16.00;96.10
4245;DHT22;2136;48.502;9.194;2023-07-31T02:49:59;16.00;96.20
4245;DHT22;2136;48.502;9.194;2023-07-31T02:52:26;16.00;96.80
4245;DHT22;2136;48.502;9.194;2023-07-31T02:54:52;16.00;97.10
4245;DHT22;2136;48.502;9.194;2023-07-31T02:57:19;16.00;97.00
4245;DHT22;2136;48.502;9.194;2023-07-31T02:59:46;16.00;96.90
4245;DHT22;2136;48.502;9.194;2023-07-31T03:02:13;16.00;96.30
4245;DHT22;2136;48.502;9.194;2023-07-31T03:04:40;16.00;95.90
4245;DHT22;2136;48.502;9.194;2023-07-31T03:07:08;16.00;95.80
4245;DHT22;2136;48.502;9.194;2023-07-31T03:09:35;16.00;94.30
4245;DHT22;2136;48.502;9.194;2023-07-31T03:12:02;16.10;92.70
4245;DHT22;2136;48.502;9.194;2023-07-31T03:14:28;16.00;92.70
4245;DHT22;2136;48.502;9.194;2023-07-31T03:16:55;16.00;93.40
4245;DHT22;2136;48.502;9.194;2023-07-31T03:19:22;15.90;93.60
4245;DHT22;2136;48.502;9.194;2023-07-31T03:21:49;15.90;92.90
4245;DHT22;2136;48.502;9.194;2023-07-31T03:24:17;16.00;92.70
4245;DHT22;2136;48.502;9.194;2023-07-31T03:26:44;15.90;92.60
4245;DHT22;2136;48.502;9.194;2023-07-31T03:29:11;15.80;92.90
4245;DHT22;2136;48.502;9.194;2023-07-31T03:31:37;15.80;93.40
4245;DHT22;2136;48.502;9.194;2023-07-31T03:34:04;15.80;94.00
4245;DHT22;2136;48.502;9.194;2023-07-31T03:36:31;15.80;94.30
4245;DHT22;2136;48.502;9.194;2023-07-31T03:38:58;15.80;94.40
4245;DHT22;2136;48.502;9.194;2023-07-31T03:41:26;15.80;94.80
4245;DHT22;2136;48.502;9.194;2023-07-31T03:43:53;15.80;95.40
4245;DHT22;2136;48.502;9.194;2023-07-31T03:46:21;15.80;95.40
4245;DHT22;2136;48.502;9.194;2023-07-31T03:48:48;15.80;95.60
4245;DHT22;2136;48.502;9.194;2023-07-31T03:51:15;15.90;95.90
4245;DHT22;2136;48.502;9.194;2023-07-31T03:53:42;15.80;96.00
4245;DHT22;2136;48.502;9.194;2023-07-31T03:56:09;15.80;96.30
4245;DHT22;2136;48.502;9.194;2023-07-31T03:58:37;15.80;96.10
4245;DHT22;2136;48.502;9.194;2023-07-31T04:01:04;15.90;96.10
4245;DHT22;2136;48.502;9.194;2023-07-31T04:03:30;15.80;96.20
4245;DHT22;2136;48.502;9.194;2023-07-31T04:05:57;15.90;96.60
4245;DHT22;2136;48.502;9.194;2023-07-31T04:08:24;15.90;96.70
4245;DHT22;2136;48.502;9.194;2023-07-31T04:10:51;15.90;97.70
4245;DHT22;2136;48.502;9.194;2023-07-31T04:13:18;16.00;97.00
4245;DHT22;2136;48.502;9.194;2023-07-31T04:15:49;16.00;96.60
4245;DHT22;2136;48.502;9.194;2023-07-31T04:18:16;15.90;96.40
4245;DHT22;2136;48.502;9.194;2023-07-31T04:20:43;16.00;96.10
4245;DHT22;2136;48.502;9.194;2023-07-31T04:23:10;16.00;96.10
4245;DHT22;2136;48.502;9.194;2023-07-31T04:25:36;15.90;96.30
4245;DHT22;2136;48.502;9.194;2023-07-31T04:28:04;16.00;96.70
4245;DHT22;2136;48.502;9.194;2023-07-31T04:30:30;16.00;97.10
4245;DHT22;2136;48.502;9.194;2023-07-31T04:32:59;16.00;97.00
4245;DHT22;2136;48.502;9.194;2023-07-31T04:35:26;16.00;96.60
4245;DHT22;2136;48.502;9.194;2023-07-31T04:37:52;16.00;96.40
4245;DHT22;2136;48.502;9.194;2023-07-31T04:40:19;16.00;96.70
4245;DHT22;2136;48.502;9.194;2023-07-31T04:42:46;16.00;96.70
4245;DHT22;2136;48.502;9.194;2023-07-31T04:45:13;16.00;96.60
4245;DHT22;2136;48.502;9.194;2023-07-31T04:47:40;16.10;96.50
4245;DHT22;2136;48.502;9.194;2023-07-31T04:50:09;16.10;96.30
4245;DHT22;2136;48.502;9.194;2023-07-31T04:52:36;16.10;96.30
4245;DHT22;2136;48.502;9.194;2023-07-31T04:55:03;16.10;96.10
4245;DHT22;2136;48.502;9.194;2023-07-31T04:57:30;16.20;95.50
4245;DHT22;2136;48.502;9.194;2023-07-31T04:59:57;16.20;95.20
4245;DHT22;2136;48.502;9.194;2023-07-31T05:02:24;16.30;95.10
4245;DHT22;2136;48.502;9.194;2023-07-31T05:04:51;16.40;94.80
4245;DHT22;2136;48.502;9.194;2023-07-31T05:07:19;16.50;94.20
4245;DHT22;2136;48.502;9.194;2023-07-31T05:09:46;16.40;93.70
4245;DHT22;2136;48.502;9.194;2023-07-31T05:12:12;16.40;93.50
4245;DHT22;2136;48.502;9.194;2023-07-31T05:14:39;16.40;93.20
4245;DHT22;2136;48.502;9.194;2023-07-31T05:17:06;16.50;92.50
4245;DHT22;2136;48.502;9.194;2023-07-31T05:19:33;16.50;91.90
4245;DHT22;2136;48.502;9.194;2023-07-31T05:22:00;16.50;91.40
4245;DHT22;2136;48.502;9.194;2023-07-31T05:24:28;16.60;91.50
4245;DHT22;2136;48.502;9.194;2023-07-31T05:26:55;16.70;90.80
4245;DHT22;2136;48.502;9.194;2023-07-31T05:29:22;16.70;90.40
4245;DHT22;2136;48.502;9.194;2023-07-31T05:31:48;16.70;90.30
4245;DHT22;2136;48.502;9.194;2023-07-31T05:34:15;16.70;90.20
4245;DHT22;2136;48.502;9.194;2023-07-31T05:36:42;16.80;90.10
4245;DHT22;2136;48.502;9.194;2023-07-31T05:39:09;16.80;90.10
4245;DHT22;2136;48.502;9.194;2023-07-31T05:41:37;16.90;89.50
4245;DHT22;2136;48.502;9.194;2023-07-31T05:44:04;16.90;88.00
4245;DHT22;2136;48.502;9.194;2023-07-31T05:46:30;17.00;88.20
4245;DHT22;2136;48.502;9.194;2023-07-31T05:48:58;17.00;88.30
4245;DHT22;2136;48.502;9.194;2023-07-31T05:51:26;17.10;88.30
4245;DHT22;2136;48.502;9.194;2023-07-31T05:53:53;17.10;87.80
4245;DHT22;2136;48.502;9.194;2023-07-31T05:56:19;17.20;87.50
4245;DHT22;2136;48.502;9.194;2023-07-31T05:58:48;17.20;86.90
4245;DHT22;2136;48.502;9.194;2023-07-31T06:01:16;17.20;86.30
4245;DHT22;2136;48.502;9.194;2023-07-31T06:03:42;17.30;86.00
4245;DHT22;2136;48.502;9.194;2023-07-31T06:06:09;17.30;85.60
4245;DHT22;2136;48.502;9.194;2023-07-31T06:08:37;17.40;85.20
4245;DHT22;2136;48.502;9.194;2023-07-31T06:11:05;17.40;84.20
4245;DHT22;2136;48.502;9.194;2023-07-31T06:13:32;17.50;83.90
4245;DHT22;2136;48.502;9.194;2023-07-31T06:16:01;17.50;84.30
4245;DHT22;2136;48.502;9.194;2023-07-31T06:18:30;17.60;84.70
4245;DHT22;2136;48.502;9.194;2023-07-31T06:20:57;17.60;85.20
4245;DHT22;2136;48.502;9.194;2023-07-31T06:23:24;17.60;85.70
4245;DHT22;2136;48.502;9.194;2023-07-31T06:25:51;17.60;86.70
4245;DHT22;2136;48.502;9.194;2023-07-31T06:28:18;17.70;87.80
4245;DHT22;2136;48.502;9.194;2023-07-31T06:30:44;17.80;88.50
4245;DHT22;2136;48.502;9.194;2023-07-31T06:33:13;17.90;88.00
4245;DHT22;2136;48.502;9.194;2023-07-31T06:35:39;17.90;87.30
4245;DHT22;2136;48.502;9.194;2023-07-31T06:38:06;18.00;87.20
4245;DHT22;2136;48.502;9.194;2023-07-31T06:40:33;18.10;86.70
4245;DHT22;2136;48.502;9.194;2023-07-31T06:43:00;18.20;86.90
4245;DHT22;2136;48.502;9.194;2023-07-31T06:45:33;18.30;86.70
4245;DHT22;2136;48.502;9.194;2023-07-31T06:48:00;18.50;86.60
4245;DHT22;2136;48.502;9.194;2023-07-31T06:50:29;18.70;85.70
4245;DHT22;2136;48.502;9.194;2023-07-31T06:52:55;18.90;83.90
4245;DHT22;2136;48.502;9.194;2023-07-31T06:55:23;19.00;82.80
4245;DHT22;2136;48.502;9.194;2023-07-31T06:57:52;19.20;81.20
4245;DHT22;2136;48.502;9.194;2023-07-31T07:00:20;19.30;79.80
4245;DHT22;2136;48.502;9.194;2023-07-31T07:02:47;19.40;79.50
4245;DHT22;2136;48.502;9.194;2023-07-31T07:05:14;19.50;78.20
4245;DHT22;2136;48.502;9.194;2023-07-31T07:07:43;19.60;77.70
4245;DHT22;2136;48.502;9.194;2023-07-31T07:10:10;19.70;77.10
4245;DHT22;2136;48.502;9.194;2023-07-31T07:12:37;19.70;75.60
4245;DHT22;2136;48.502;9.194;2023-07-31T07:15:05;19.70;74.00
4245;DHT22;2136;48.502;9.194;2023-07-31T07:17:32;19.70;73.10
4245;DHT22;2136;48.502;9.194;2023-07-31T07:19:59;19.80;72.90
4245;DHT22;2136;48.502;9.194;2023-07-31T07:22:26;19.80;73.20
4245;DHT22;2136;48.502;9.194;2023-07-31T07:24:54;19.90;74.00
4245;DHT22;2136;48.502;9.194;2023-07-31T07:27:21;20.00;74.30
4245;DHT22;2136;48.502;9.194;2023-07-31T07:29:50;20.10;74.00
4245;DHT22;2136;48.502;9.194;2023-07-31T07:32:18;20.20;74.20
4245;DHT22;2136;48.502;9.194;2023-07-31T07:34:44;20.30;74.20
4245;DHT22;2136;48.502;9.194;2023-07-31T07:37:11;20.40;74.10
4245;DHT22;2136;48.502;9.194;2023-07-31T07:39:38;20.50;73.90
4245;DHT22;2136;48.502;9.194;2023-07-31T07:42:06;20.70;73.60
4245;DHT22;2136;48.502;9.194;2023-07-31T07:44:33;20.70;73.00
4245;DHT22;2136;48.502;9.194;2023-07-31T07:47:00;20.80;72.90
4245;DHT22;2136;48.502;9.194;2023-07-31T07:49:27;20.90;72.40
4245;DHT22;2136;48.502;9.194;2023-07-31T07:51:54;21.00;71.40
4245;DHT22;2136;48.502;9.194;2023-07-31T07:54:20;21.10;70.60
4245;DHT22;2136;48.502;9.194;2023-07-31T07:56:47;21.10;70.50
4245;DHT22;2136;48.502;9.194;2023-07-31T07:59:16;21.10;70.40
4245;DHT22;2136;48.502;9.194;2023-07-31T08:01:43;21.20;70.20
4245;DHT22;2136;48.502;9.194;2023-07-31T08:04:10;21.20;69.30
4245;DHT22;2136;48.502;9.194;2023-07-31T08:06:36;21.30;68.10
4245;DHT22;2136;48.502;9.194;2023-07-31T08:09:03;21.40;67.80
4245;DHT22;2136;48.502;9.194;2023-07-31T08:11:31;21.60;67.30
4245;DHT22;2136;48.502;9.194;2023-07-31T08:13:58;21.70;64.50
4245;DHT22;2136;48.502;9.194;2023-07-31T08:16:27;21.80;62.40
4245;DHT22;2136;48.502;9.194;2023-07-31T08:18:54;21.80;58.80
4245;DHT22;2136;48.502;9.194;2023-07-31T08:21:21;21.80;58.80
4245;DHT22;2136;48.502;9.194;2023-07-31T08:23:48;21.80;58.50
4245;DHT22;2136;48.502;9.194;2023-07-31T08:26:15;21.90;58.30
4245;DHT22;2136;48.502;9.194;2023-07-31T08:28:42;21.80;57.40
4245;DHT22;2136;48.502;9.194;2023-07-31T08:31:09;21.80;57.40
4245;DHT22;2136;48.502;9.194;2023-07-31T08:33:37;21.90;57.60
4245;DHT22;2136;48.502;9.194;2023-07-31T08:36:04;22.00;57.30
4245;DHT22;2136;48.502;9.194;2023-07-31T08:38:31;22.00;56.70
4245;DHT22;2136;48.502;9.194;2023-07-31T08:40:58;21.90;55.80
4245;DHT22;2136;48.502;9.194;2023-07-31T08:43:26;21.90;55.90
4245;DHT22;2136;48.502;9.194;2023-07-31T08:45:53;22.00;56.20
4245;DHT22;2136;48.502;9.194;2023-07-31T08:48:22;22.00;56.10
4245;DHT22;2136;48.502;9.194;2023-07-31T08:50:51;22.20;56.20
4245;DHT22;2136;48.502;9.194;2023-07-31T08:53:18;22.50;56.20
4245;DHT22;2136;48.502;9.194;2023-07-31T08:55:46;22.70;54.80
4245;DHT22;2136;48.502;9.194;2023-07-31T08:58:15;22.80;54.10
4245;DHT22;2136;48.502;9.194;2023-07-31T09:00:43;22.90;55.10
4245;DHT22;2136;48.502;9.194;2023-07-31T09:03:13;23.20;55.20
4245;DHT22;2136;48.502;9.194;2023-07-31T09:05:42;23.40;54.20
4245;DHT22;2136;48.502;9.194;2023-07-31T09:08:12;23.60;53.70
4245;DHT22;2136;48.502;9.194;2023-07-31T09:10:43;23.70;52.90
4245;DHT22;2136;48.502;9.194;2023-07-31T09:13:11;23.90;52.70
4245;DHT22;2136;48.502;9.194;2023-07-31T09:15:39;23.80;52.00
4245;DHT22;2136;48.502;9.194;2023-07-31T09:18:07;23.90;52.40
4245;DHT22;2136;48.502;9.194;2023-07-31T09:20:35;23.90;52.00
4245;DHT22;2136;48.502;9.194;2023-07-31T09:23:07;24.00;51.70
4245;DHT22;2136;48.502;9.194;2023-07-31T09:25:36;24.10;51.90
4245;DHT22;2136;48.502;9.194;2023-07-31T09:28:05;24.20;52.20
4245;DHT22;2136;48.502;9.194;2023-07-31T09:30:45;24.40;52.10
4245;DHT22;2136;48.502;9.194;2023-07-31T09:33:12;24.60;51.90
4245;DHT22;2136;48.502;9.194;2023-07-31T09:35:39;24.80;51.70
4245;DHT22;2136;48.502;9.194;2023-07-31T09:38:08;24.80;50.70
4245;DHT22;2136;48.502;9.194;2023-07-31T09:40:38;25.00;51.20
4245;DHT22;2136;48.502;9.194;2023-07-31T09:43:21;25.00;50.30
4245;DHT22;2136;48.502;9.194;2023-07-31T09:45:57;24.80;50.10
4245;DHT22;2136;48.502;9.194;2023-07-31T09:48:24;24.60;50.20
4245;DHT22;2136;48.502;9.194;2023-07-31T09:50:53;24.50;50.30
4245;DHT22;2136;48.502;9.194;2023-07-31T09:53:28;24.30;50.00
4245;DHT22;2136;48.502;9.194;2023-07-31T09:55:58;24.20;50.30
4245;DHT22;2136;48.502;9.194;2023-07-31T09:58:27;24.20;50.60
4245;DHT22;2136;48.502;9.194;2023-07-31T10:00:56;24.20;50.90
4245;DHT22;2136;48.502;9.194;2023-07-31T10:03:24;24.30;51.40
4245;DHT22;2136;48.502;9.194;2023-07-31T10:05:53;24.60;51.80
4245;DHT22;2136;48.502;9.194;2023-07-31T10:08:27;25.00;51.30
4245;DHT22;2136;48.502;9.194;2023-07-31T10:10:57;25.30;50.60
4245;DHT22;2136;48.502;9.194;2023-07-31T10:13:25;25.80;50.30
4245;DHT22;2136;48.502;9.194;2023-07-31T10:15:54;26.30;49.90
4245;DHT22;2136;48.502;9.194;2023-07-31T10:18:25;26.70;49.10
4245;DHT22;2136;48.502;9.194;2023-07-31T10:20:53;27.00;48.10
4245;DHT22;2136;48.502;9.194;2023-07-31T10:23:22;28.10;47.60
4245;DHT22;2136;48.502;9.194;2023-07-31T10:25:50;28.70;45.30
4245;DHT22;2136;48.502;9.194;2023-07-31T10:28:21;29.80;44.20
4245;DHT22;2136;48.502;9.194;2023-07-31T10:30:49;31.60;42.50
4245;DHT22;2136;48.502;9.194;2023-07-31T10:33:17;33.20;39.80
4245;DHT22;2136;48.502;9.194;2023-07-31T10:35:46;35.30;37.90
4245;DHT22;2136;48.502;9.194;2023-07-31T10:38:13;37.30;35.60
4245;DHT22;2136;48.502;9.194;2023-07-31T10:40:40;39.20;33.60
4245;DHT22;2136;48.502;9.194;2023-07-31T10:43:07;41.30;32.20
4245;DHT22;2136;48.502;9.194;2023-07-31T10:45:39;43.30;30.70
4245;DHT22;2136;48.502;9.194;2023-07-31T10:48:07;44.70;29.60
4245;DHT22;2136;48.502;9.194;2023-07-31T10:50:46;45.60;29.00
4245;DHT22;2136;48.502;9.194;2023-07-31T10:53:22;45.70;28.30
4245;DHT22;2136;48.502;9.194;2023-07-31T10:55:50;44.50;26.40
4245;DHT22;2136;48.502;9.194;2023-07-31T10:58:19;42.80;26.00
4245;DHT22;2136;48.502;9.194;2023-07-31T11:00:47;42.00;27.40
4245;DHT22;2136;48.502;9.194;2023-07-31T11:03:16;42.30;27.90
4245;DHT22;2136;48.502;9.194;2023-07-31T11:05:51;42.40;27.40
4245;DHT22;2136;48.502;9.194;2023-07-31T11:08:21;41.80;27.00
4245;DHT22;2136;48.502;9.194;2023-07-31T11:10:50;41.80;27.30
4245;DHT22;2136;48.502;9.194;2023-07-31T11:13:17;41.90;27.40
4245;DHT22;2136;48.502;9.194;2023-07-31T11:15:44;42.50;27.30
4245;DHT22;2136;48.502;9.194;2023-07-31T11:18:12;43.70;27.50
4245;DHT22;2136;48.502;9.194;2023-07-31T11:20:40;45.40;27.40
4245;DHT22;2136;48.502;9.194;2023-07-31T11:23:09;46.20;25.40
4245;DHT22;2136;48.502;9.194;2023-07-31T11:25:36;44.90;24.50
4245;DHT22;2136;48.502;9.194;2023-07-31T11:28:08;43.20;25.00
4245;DHT22;2136;48.502;9.194;2023-07-31T11:30:35;41.40;25.50
4245;DHT22;2136;48.502;9.194;2023-07-31T11:33:03;39.90;26.20
4245;DHT22;2136;48.502;9.194;2023-07-31T11:35:33;38.80;27.10
4245;DHT22;2136;48.502;9.194;2023-07-31T11:38:00;37.80;28.20
4245;DHT22;2136;48.502;9.194;2023-07-31T11:40:28;38.30;29.30
4245;DHT22;2136;48.502;9.194;2023-07-31T11:42:56;39.00;29.10
4245;DHT22;2136;48.502;9.194;2023-07-31T11:45:25;40.70;29.40
4245;DHT22;2136;48.502;9.194;2023-07-31T11:47:54;41.60;28.30
4245;DHT22;2136;48.502;9.194;2023-07-31T11:50:22;40.80;26.90
4245;DHT22;2136;48.502;9.194;2023-07-31T11:52:55;39.60;26.80
4245;DHT22;2136;48.502;9.194;2023-07-31T11:55:23;38.30;27.40
4245;DHT22;2136;48.502;9.194;2023-07-31T11:57:51;36.90;28.20
4245;DHT22;2136;48.502;9.194;2023-07-31T12:00:18;35.80;29.70
4245;DHT22;2136;48.502;9.194;2023-07-31T12:02:45;34.80;30.60
4245;DHT22;2136;48.502;9.194;2023-07-31T12:05:13;33.90;32.10
4245;DHT22;2136;48.502;9.194;2023-07-31T12:07:44;33.10;33.50
4245;DHT22;2136;48.502;9.194;2023-07-31T12:10:23;32.40;34.10
4245;DHT22;2136;48.502;9.194;2023-07-31T12:12:58;31.50;35.40
4245;DHT22;2136;48.502;9.194;2023-07-31T12:15:39;30.80;37.60
4245;DHT22;2136;48.502;9.194;2023-07-31T12:18:08;30.00;38.70
4245;DHT22;2136;48.502;9.194;2023-07-31T12:20:35;29.40;39.70
4245;DHT22;2136;48.502;9.194;2023-07-31T12:23:02;28.90;41.50
4245;DHT22;2136;48.502;9.194;2023-07-31T12:25:32;28.40;42.50
4245;DHT22;2136;48.502;9.194;2023-07-31T12:28:04;28.00;42.80
4245;DHT22;2136;48.502;9.194;2023-07-31T12:30:33;27.70;43.10
4245;DHT22;2136;48.502;9.194;2023-07-31T12:33:03;27.40;43.50
4245;DHT22;2136;48.502;9.194;2023-07-31T12:35:36;27.30;44.10
4245;DHT22;2136;48.502;9.194;2023-07-31T12:38:03;27.20;44.70
4245;DHT22;2136;48.502;9.194;2023-07-31T12:40:31;27.20;45.00
4245;DHT22;2136;48.502;9.194;2023-07-31T12:43:00;27.20;45.50
4245;DHT22;2136;48.502;9.194;2023-07-31T12:45:27;27.40;45.50
4245;DHT22;2136;48.502;9.194;2023-07-31T12:47:54;27.60;45.30
4245;DHT22;2136;48.502;9.194;2023-07-31T12:50:21;28.20;45.60
4245;DHT22;2136;48.502;9.194;2023-07-31T12:52:49;29.50;46.10
4245;DHT22;2136;48.502;9.194;2023-07-31T12:55:15;31.30;44.00
4245;DHT22;2136;48.502;9.194;2023-07-31T12:57:45;32.30;41.50
4245;DHT22;2136;48.502;9.194;2023-07-31T13:00:13;33.10;39.80
4245;DHT22;2136;48.502;9.194;2023-07-31T13:02:40;33.90;38.70
4245;DHT22;2136;48.502;9.194;2023-07-31T13:05:07;34.30;37.10
4245;DHT22;2136;48.502;9.194;2023-07-31T13:07:34;34.30;36.70
4245;DHT22;2136;48.502;9.194;2023-07-31T13:10:00;34.30;36.70
4245;DHT22;2136;48.502;9.194;2023-07-31T13:12:27;34.00;35.90
4245;DHT22;2136;48.502;9.194;2023-07-31T13:14:55;33.60;36.10
4245;DHT22;2136;48.502;9.194;2023-07-31T13:17:22;33.10;36.10
4245;DHT22;2136;48.502;9.194;2023-07-31T13:19:49;32.60;37.10
4245;DHT22;2136;48.502;9.194;2023-07-31T13:22:16;32.20;37.70
4245;DHT22;2136;48.502;9.194;2023-07-31T13:24:42;31.80;38.40
4245;DHT22;2136;48.502;9.194;2023-07-31T13:27:09;31.70;38.80
4245;DHT22;2136;48.502;9.194;2023-07-31T13:29:36;31.40;38.10
4245;DHT22;2136;48.502;9.194;2023-07-31T13:32:05;31.10;38.80
4245;DHT22;2136;48.502;9.194;2023-07-31T13:34:32;30.80;39.30
4245;DHT22;2136;48.502;9.194;2023-07-31T13:36:58;30.60;39.60
4245;DHT22;2136;48.502;9.194;2023-07-31T13:39:25;30.40;40.10
4245;DHT22;2136;48.502;9.194;2023-07-31T13:41:52;30.30;40.40
4245;DHT22;2136;48.502;9.194;2023-07-31T13:44:19;30.00;40.70
4245;DHT22;2136;48.502;9.194;2023-07-31T13:46:46;29.70;40.20
4245;DHT22;2136;48.502;9.194;2023-07-31T13:49:14;29.40;39.80
4245;DHT22;2136;48.502;9.194;2023-07-31T13:51:41;29.10;40.30
4245;DHT22;2136;48.502;9.194;2023-07-31T13:54:07;28.60;40.70
4245;DHT22;2136;48.502;9.194;2023-07-31T13:56:37;28.30;41.60
4245;DHT22;2136;48.502;9.194;2023-07-31T13:59:04;27.90;41.60
4245;DHT22;2136;48.502;9.194;2023-07-31T14:01:31;27.60;42.40
4245;DHT22;2136;48.502;9.194;2023-07-31T14:03:58;27.30;43.30
4245;DHT22;2136;48.502;9.194;2023-07-31T14:06:26;27.00;42.80
4245;DHT22;2136;48.502;9.194;2023-07-31T14:08:53;26.80;43.80
4245;DHT22;2136;48.502;9.194;2023-07-31T14:11:21;26.60;44.60
4245;DHT22;2136;48.502;9.194;2023-07-31T14:13:49;26.40;44.40
4245;DHT22;2136;48.502;9.194;2023-07-31T14:16:16;26.10;45.00
4245;DHT22;2136;48.502;9.194;2023-07-31T14:18:43;26.00;45.50
4245;DHT22;2136;48.502;9.194;2023-07-31T14:21:10;25.80;45.80
4245;DHT22;2136;48.502;9.194;2023-07-31T14:23:39;25.60;46.20
4245;DHT22;2136;48.502;9.194;2023-07-31T14:26:06;25.50;47.10
4245;DHT22;2136;48.502;9.194;2023-07-31T14:28:32;25.40;47.40
4245;DHT22;2136;48.502;9.194;2023-07-31T14:30:59;25.30;47.40
4245;DHT22;2136;48.502;9.194;2023-07-31T14:33:26;25.10;47.50
4245;DHT22;2136;48.502;9.194;2023-07-31T14:35:53;25.00;48.00
4245;DHT22;2136;48.502;9.194;2023-07-31T14:38:20;25.00;48.10
4245;DHT22;2136;48.502;9.194;2023-07-31T14:40:48;24.90;48.40
4245;DHT22;2136;48.502;9.194;2023-07-31T14:43:15;24.80;48.40
4245;DHT22;2136;48.502;9.194;2023-07-31T14:45:42;24.80;48.70
4245;DHT22;2136;48.502;9.194;2023-07-31T14:48:08;24.70;48.70
4245;DHT22;2136;48.502;9.194;2023-07-31T14:50:35;24.70;48.80
4245;DHT22;2136;48.502;9.194;2023-07-31T14:53:02;24.60;48.80
4245;DHT22;2136;48.502;9.194;2023-07-31T14:55:29;24.50;48.90
4245;DHT22;2136;48.502;9.194;2023-07-31T14:57:57;24.50;49.20
4245;DHT22;2136;48.502;9.194;2023-07-31T15:00:24;24.40;49.40
4245;DHT22;2136;48.502;9.194;2023-07-31T15:02:52;24.40;49.50
4245;DHT22;2136;48.502;9.194;2023-07-31T15:05:18;24.40;49.80
4245;DHT22;2136;48.502;9.194;2023-07-31T15:07:45;24.40;50.20
4245;DHT22;2136;48.502;9.194;2023-07-31T15:10:12;24.40;50.30
4245;DHT22;2136;48.502;9.194;2023-07-31T15:12:40;24.30;50.40
4245;DHT22;2136;48.502;9.194;2023-07-31T15:15:09;24.30;50.20
4245;DHT22;2136;48.502;9.194;2023-07-31T15:17:35;24.30;50.30
4245;DHT22;2136;48.502;9.194;2023-07-31T15:20:03;24.20;50.50
4245;DHT22;2136;48.502;9.194;2023-07-31T15:22:30;24.20;50.60
4245;DHT22;2136;48.502;9.194;2023-07-31T15:24:57;24.20;50.60
4245;DHT22;2136;48.502;9.194;2023-07-31T15:27:24;24.10;50.60
4245;DHT22;2136;48.502;9.194;2023-07-31T15:29:50;24.10;50.80
4245;DHT22;2136;48.502;9.194;2023-07-31T15:32:19;24.10;50.80
4245;DHT22;2136;48.502;9.194;2023-07-31T15:34:46;24.10;51.00
4245;DHT22;2136;48.502;9.194;2023-07-31T15:37:12;24.20;51.20
4245;DHT22;2136;48.502;9.194;2023-07-31T15:39:39;24.20;51.40
4245;DHT22;2136;48.502;9.194;2023-07-31T15:42:07;24.20;51.30
4245;DHT22;2136;48.502;9.194;2023-07-31T15:44:34;24.30;51.40
4245;DHT22;2136;48.502;9.194;2023-07-31T15:47:01;24.30;51.00
4245;DHT22;2136;48.502;9.194;2023-07-31T15:49:29;24.30;51.10
4245;DHT22;2136;48.502;9.194;2023-07-31T15:51:56;24.40;51.00
4245;DHT22;2136;48.502;9.194;2023-07-31T15:54:23;24.40;51.00
4245;DHT22;2136;48.502;9.194;2023-07-31T15:56:50;24.40;51.20
4245;DHT22;2136;48.502;9.194;2023-07-31T15:59:17;24.50;51.20
4245;DHT22;2136;48.502;9.194;2023-07-31T16:01:44;24.50;51.20
4245;DHT22;2136;48.502;9.194;2023-07-31T16:04:11;24.60;51.10
4245;DHT22;2136;48.502;9.194;2023-07-31T16:06:39;24.60;51.30
4245;DHT22;2136;48.502;9.194;2023-07-31T16:09:06;24.60;51.40